Thunder radar more information blitzortung!


Radar de pluja more information rain snow radar


Visita la nostra xarxa de llocs de meteo:

Template documentation
and downloads

And another site



No particular awareness of the weather is required.    There are no Weather-warnings

Pagina Historial Weather Underground text

Diari Resum Setembre 4, 2017 Unitats:  Imperial    Mètric   Tant
« Previous Dia
SegĂźent Dia »
Diari Setmana Mensual Anual Personalitzada
  Maxima: Minima: Media:
Temperatura: TemperatureC °F 18.0 °F 23.2 °F
Punt de rosada: DewpointC °F 14.7 °F 16.4 °F
Humitat: Humidity % 52 % 66 %
Wind Speed: WindSpeedKMH mph 0.0 mph 7.2 mph
RĂ fegues de vent: WindSpeedGustKMH mph - -
Vent:- - East
Pression baro: PressurehPa in 1010.7 in -
Precipitacions: 0.0 in    
Historical Graphs
 
 
Dades de taula per Setembre 4, 2017
Temps Temperatura Punt de rosada Pression baro Vent Wind Speed RĂ fegues de vent Humitat Rainfall Rate (Hourly)
TemperatureC °F DewpointC °F PressurehPa in Calm     Humidity % HourlyPrecipMM in
00:00 18.7 °F 16.5 °F 1011.7 in Calm   3.2 mph 87 % 0.0 in
00:01 20.3 °F 15.5 °F 1012.8 in ENE 2.6 mph 2.6 mph 74 % 0.0 in
00:06 20.3 °F 15.5 °F 1012.8 in NE 3.9 mph 3.9 mph 74 % 0.0 in
00:10 18.7 °F 16.7 °F 1011.7 in Calm   3.2 mph 88 % 0.0 in
00:20 18.6 °F 16.6 °F 1011.7 in Calm     88 % 0.0 in
00:30 18.6 °F 16.6 °F 1011.7 in NE 1.6 mph 1.6 mph 88 % 0.0 in
00:40 18.5 °F 16.5 °F 1011.7 in Calm   3.2 mph 88 % 0.0 in
00:50 18.5 °F 16.5 °F 1011.7 in SW 3.2 mph 3.2 mph 88 % 0.0 in
01:00 18.5 °F 16.7 °F 1011.7 in Calm   1.6 mph 89 % 0.0 in
01:10 18.6 °F 16.8 °F 1011.7 in Calm   1.6 mph 89 % 0.0 in
01:20 18.5 °F 16.5 °F 1011.7 in North 1.6 mph 3.2 mph 88 % 0.0 in
01:30 18.4 °F 16.6 °F 1011.7 in WSW 1.6 mph 3.2 mph 89 % 0.0 in
01:40 18.5 °F 16.7 °F 1010.7 in WSW 1.6 mph   89 % 0.0 in
01:50 18.5 °F 16.8 °F 1010.7 in Calm   1.6 mph 90 % 0.0 in
02:00 18.6 °F 16.9 °F 1011.7 in WNW 1.6 mph 3.2 mph 90 % 0.0 in
02:10 18.5 °F 16.8 °F 1011.7 in NE 1.6 mph 3.2 mph 90 % 0.0 in
02:20 18.5 °F 16.7 °F 1011.7 in NNW 1.6 mph 3.2 mph 89 % 0.0 in
02:30 18.4 °F 16.7 °F 1011.7 in Calm     90 % 0.0 in
02:40 18.4 °F 16.7 °F 1012.8 in NNW 1.6 mph 3.2 mph 90 % 0.0 in
02:50 18.5 °F 17.0 °F 1012.8 in Calm   3.2 mph 91 % 0.0 in
03:00 18.6 °F 17.1 °F 1011.7 in ENE 1.6 mph 3.2 mph 91 % 0.0 in
03:10 18.7 °F 17.2 °F 1012.8 in Calm     91 % 0.0 in
03:20 18.8 °F 17.3 °F 1012.8 in ENE 1.6 mph 1.6 mph 91 % 0.0 in
03:30 19.0 °F 17.3 °F 1013.8 in NE 1.6 mph 1.6 mph 90 % 0.0 in
03:40 19.0 °F 17.3 °F 1013.8 in Calm   6.4 mph 90 % 0.0 in
03:50 19.3 °F 17.8 °F 1013.8 in Calm   3.2 mph 91 % 0.0 in
04:00 19.3 °F 17.6 °F 1013.8 in NNE 1.6 mph 4.8 mph 90 % 0.0 in
04:10 19.4 °F 17.7 °F 1013.8 in NE 1.6 mph 3.2 mph 90 % 0.0 in
04:20 19.6 °F 17.9 °F 1013.8 in Calm   3.2 mph 90 % 0.0 in
04:30 19.7 °F 18.0 °F 1013.8 in Calm   3.2 mph 90 % 0.0 in
04:40 20.4 °F 18.5 °F 1013.8 in Calm   3.2 mph 89 % 0.0 in
04:50 20.8 °F 18.7 °F 1013.8 in ENE 3.2 mph 6.4 mph 88 % 0.0 in
05:00 20.8 °F 18.4 °F 1013.8 in NE 3.2 mph 4.8 mph 86 % 0.0 in
05:10 21.6 °F 18.6 °F 1013.8 in NE 3.2 mph 4.8 mph 83 % 0.0 in
05:20 22.3 °F 19.1 °F 1013.8 in North 1.6 mph 6.4 mph 82 % 0.0 in
05:30 22.4 °F 18.4 °F 1013.8 in NNE 8.0 mph 8.0 mph 78 % 0.0 in
05:40 22.7 °F 18.4 °F 1014.8 in NE 3.2 mph 6.4 mph 77 % 0.0 in
05:50 23.0 °F 18.3 °F 1014.8 in NE 4.8 mph 8.0 mph 75 % 0.0 in
05:55 23.2 °F 18.5 °F 1014.8 in ENE 3.2 mph 8.0 mph 75 % 0.0 in
10:58 23.3 °F 18.6 °F 1014.8 in East 3.9 mph 3.9 mph 75 % 0.0 in
10:59 23.3 °F 18.6 °F 1014.8 in East 4.7 mph 4.7 mph 75 % 0.0 in
11:00 23.5 °F 18.8 °F 1014.8 in ESE 5.6 mph 5.6 mph 75 % 0.0 in
11:05 23.5 °F 18.6 °F 1014.8 in ESE 5.6 mph 5.6 mph 74 % 0.0 in
11:10 23.5 °F 18.4 °F 1014.8 in East 5.8 mph 5.8 mph 73 % 0.0 in
11:15 23.7 °F 18.6 °F 1014.8 in NE 5.6 mph 5.6 mph 73 % 0.0 in
11:20 23.5 °F 17.7 °F 1014.8 in ESE 7.4 mph 7.4 mph 70 % 0.0 in
11:25 23.9 °F 18.1 °F 1014.8 in NE 5.6 mph 5.6 mph 70 % 0.0 in
11:30 24.3 °F 18.0 °F 1014.8 in NNE 9.3 mph 9.3 mph 68 % 0.0 in
11:35 24.5 °F 17.7 °F 1014.8 in East 6.1 mph 6.1 mph 66 % 0.0 in
11:40 24.3 °F 17.3 °F 1014.8 in ESE 9.3 mph 9.3 mph 65 % 0.0 in
11:45 24.3 °F 17.3 °F 1014.8 in East 5.6 mph 5.6 mph 65 % 0.0 in
11:50 24.6 °F 17.3 °F 1014.8 in East 9.3 mph 9.3 mph 64 % 0.0 in
11:55 24.5 °F 17.5 °F 1014.8 in NNE 7.9 mph 7.9 mph 65 % 0.0 in
12:00 24.5 °F 17.2 °F 1014.8 in ESE 9.3 mph 9.3 mph 64 % 0.0 in
12:05 24.5 °F 17.2 °F 1014.8 in ESE 5.6 mph 5.6 mph 64 % 0.0 in
12:10 24.8 °F 17.3 °F 1014.8 in South 7.4 mph 7.4 mph 63 % 0.0 in
12:15 24.9 °F 17.1 °F 1014.8 in SE 9.5 mph 9.5 mph 62 % 0.0 in
12:20 24.8 °F 17.3 °F 1014.8 in ESE 9.7 mph 9.7 mph 63 % 0.0 in
12:25 25.0 °F 16.9 °F 1014.8 in ESE 9.3 mph 9.3 mph 61 % 0.0 in
12:30 25.0 °F 16.7 °F 1014.8 in ENE 9.3 mph 9.3 mph 60 % 0.0 in
12:35 25.9 °F 17.6 °F 1014.8 in ESE 10.0 mph 10.0 mph 60 % 0.0 in
12:40 25.7 °F 17.6 °F 1014.8 in ENE 5.6 mph 5.6 mph 61 % 0.0 in
12:45 25.7 °F 17.1 °F 1014.8 in East 13.0 mph 13.0 mph 59 % 0.0 in
12:50 25.8 °F 16.6 °F 1014.8 in ESE 13.0 mph 13.0 mph 57 % 0.0 in
12:55 25.7 °F 16.8 °F 1014.8 in SSW 9.3 mph 9.3 mph 58 % 0.0 in
13:00 25.7 °F 16.8 °F 1014.8 in ESE 13.7 mph 13.7 mph 58 % 0.0 in
13:05 25.7 °F 16.8 °F 1014.8 in South 5.6 mph 5.6 mph 58 % 0.0 in
13:10 25.8 °F 16.9 °F 1014.8 in ESE 9.3 mph 9.3 mph 58 % 0.0 in
13:15 26.2 °F 17.0 °F 1014.8 in ESE 11.1 mph 11.1 mph 57 % 0.0 in
13:20 26.0 °F 16.8 °F 1014.8 in South 3.7 mph 3.7 mph 57 % 0.0 in
13:25 26.4 °F 17.4 °F 1014.8 in ENE 13.0 mph 13.0 mph 58 % 0.0 in
13:30 26.2 °F 17.0 °F 1014.8 in ESE 6.9 mph 6.9 mph 57 % 0.0 in
13:35 25.9 °F 16.7 °F 1014.8 in ENE 13.0 mph 13.0 mph 57 % 0.0 in
13:40 25.7 °F 16.6 °F 1014.8 in ESE 9.3 mph 9.3 mph 57 % 0.0 in
13:45 25.7 °F 16.8 °F 1014.8 in ESE 13.0 mph 13.0 mph 58 % 0.0 in
13:50 25.8 °F 16.9 °F 1014.8 in ENE 12.2 mph 12.2 mph 58 % 0.0 in
13:55 26.1 °F 16.9 °F 1014.8 in ESE 14.8 mph 14.8 mph 57 % 0.0 in
14:00 25.7 °F 16.3 °F 1014.8 in ESE 12.2 mph 12.2 mph 56 % 0.0 in
14:05 26.0 °F 16.8 °F 1014.8 in ESE 6.4 mph 6.4 mph 57 % 0.0 in
14:10 25.7 °F 16.6 °F 1014.8 in SE 18.5 mph 18.5 mph 57 % 0.0 in
14:15 26.1 °F 16.9 °F 1014.8 in SSE 7.4 mph 7.4 mph 57 % 0.0 in
14:20 26.2 °F 16.7 °F 1014.8 in SE 7.4 mph 7.4 mph 56 % 0.0 in
14:25 26.3 °F 17.1 °F 1014.8 in SSE 11.1 mph 11.1 mph 57 % 0.0 in
14:30 26.7 °F 17.2 °F 1014.8 in West 11.1 mph 11.1 mph 56 % 0.0 in
14:35 27.2 °F 17.4 °F 1014.8 in South 11.1 mph 11.1 mph 55 % 0.0 in
14:40 27.4 °F 17.3 °F 1015.8 in South 5.8 mph 5.8 mph 54 % 0.0 in
14:45 27.4 °F 17.3 °F 1015.8 in South 11.1 mph 11.1 mph 54 % 0.0 in
14:50 27.3 °F 17.2 °F 1015.8 in ESE 9.0 mph 9.0 mph 54 % 0.0 in
14:55 27.2 °F 16.8 °F 1015.8 in SW 11.1 mph 11.1 mph 53 % 0.0 in
15:00 26.9 °F 16.8 °F 1015.8 in East 22.2 mph 22.2 mph 54 % 0.0 in
15:05 27.1 °F 16.7 °F 1015.8 in SSW 9.3 mph 9.5 mph 53 % 0.0 in
15:10 27.2 °F 16.5 °F 1014.8 in SSE 13.0 mph 13.0 mph 52 % 0.0 in
15:15 26.8 °F 16.4 °F 1014.8 in ESE 13.0 mph 13.0 mph 53 % 0.0 in
15:20 26.6 °F 16.2 °F 1014.8 in ESE 18.5 mph 18.5 mph 53 % 0.0 in
15:25 26.1 °F 15.8 °F 1014.8 in ESE 14.8 mph 14.8 mph 53 % 0.0 in
15:30 25.9 °F 15.6 °F 1014.8 in ESE 14.8 mph 14.8 mph 53 % 0.0 in
15:32 25.9 °F 15.9 °F 1014.8 in ESE 13.0 mph 13.0 mph 54 % 0.0 in
15:37 25.9 °F 15.9 °F 1014.8 in SE 9.3 mph 9.3 mph 54 % 0.0 in
15:42 26.0 °F 15.9 °F 1014.8 in East 14.8 mph 14.8 mph 54 % 0.0 in
15:47 26.3 °F 16.2 °F 1014.8 in ESE 11.1 mph 11.1 mph 54 % 0.0 in
15:52 26.5 °F 16.4 °F 1014.8 in SE 10.3 mph 10.3 mph 54 % 0.0 in
15:57 26.4 °F 16.3 °F 1015.8 in ESE 9.7 mph 9.7 mph 54 % 0.0 in
16:02 26.4 °F 16.3 °F 1015.8 in SSE 9.3 mph 9.3 mph 54 % 0.0 in
16:07 26.4 °F 16.3 °F 1015.8 in SSE 13.0 mph 13.0 mph 54 % 0.0 in
16:12 26.5 °F 16.4 °F 1014.8 in East 13.0 mph 13.0 mph 54 % 0.0 in
16:17 26.5 °F 16.4 °F 1014.8 in SE 9.3 mph 9.3 mph 54 % 0.0 in
16:22 26.2 °F 16.2 °F 1014.8 in SSE 16.7 mph 16.7 mph 54 % 0.0 in
16:24 26.3 °F 16.2 °F 1015.8 in ESE 9.3 mph 9.3 mph 54 % 0.0 in
16:29 26.4 °F 16.3 °F 1015.8 in ESE 11.1 mph 11.1 mph 54 % 0.0 in
16:34 26.0 °F 15.9 °F 1015.8 in NNE 14.8 mph 14.8 mph 54 % 0.0 in
16:39 25.9 °F 15.9 °F 1014.8 in ESE 13.0 mph 13.0 mph 54 % 0.0 in
16:44 25.8 °F 16.1 °F 1014.8 in ENE 9.7 mph 9.7 mph 55 % 0.0 in
16:49 26.1 °F 16.3 °F 1014.8 in ESE 9.3 mph 9.3 mph 55 % 0.0 in
16:54 26.0 °F 16.3 °F 1015.8 in East 9.3 mph 9.3 mph 55 % 0.0 in
16:59 26.0 °F 16.3 °F 1015.8 in ENE 9.3 mph 9.3 mph 55 % 0.0 in
17:04 25.6 °F 15.9 °F 1015.8 in ESE 18.0 mph 18.0 mph 55 % 0.0 in
17:09 25.6 °F 16.2 °F 1015.8 in East 13.0 mph 13.0 mph 56 % 0.0 in
17:14 25.5 °F 16.1 °F 1015.8 in ENE 9.3 mph 9.3 mph 56 % 0.0 in
17:19 25.8 °F 16.3 °F 1015.8 in SSE 13.0 mph 13.0 mph 56 % 0.0 in
17:24 26.1 °F 16.3 °F 1015.8 in South 9.7 mph 9.7 mph 55 % 0.0 in
17:29 26.1 °F 16.3 °F 1015.8 in SE 14.8 mph 14.8 mph 55 % 0.0 in
17:34 25.9 °F 16.2 °F 1015.8 in South 13.0 mph 13.0 mph 55 % 0.0 in
17:36 26.0 °F 16.3 °F 1015.8 in ENE 11.4 mph 11.4 mph 55 % 0.0 in
17:41 26.1 °F 16.3 °F 1015.8 in West 11.1 mph 11.1 mph 55 % 0.0 in
17:46 26.2 °F 16.4 °F 1015.8 in SSE 14.0 mph 14.0 mph 55 % 0.0 in
17:51 25.8 °F 16.1 °F 1015.8 in ENE 13.0 mph 13.0 mph 55 % 0.0 in
17:56 26.2 °F 16.4 °F 1016.8 in ENE 7.4 mph 7.4 mph 55 % 0.0 in
18:01 25.6 °F 15.9 °F 1016.8 in East 18.5 mph 18.5 mph 55 % 0.0 in
18:06 25.5 °F 16.1 °F 1016.8 in East 13.0 mph 13.0 mph 56 % 0.0 in
18:11 25.2 °F 15.8 °F 1015.8 in ESE 16.9 mph 16.9 mph 56 % 0.0 in
18:16 25.0 °F 16.2 °F 1015.8 in ESE 16.7 mph 16.7 mph 58 % 0.0 in
18:21 24.9 °F 16.3 °F 1015.8 in ENE 16.9 mph 16.9 mph 59 % 0.0 in
18:26 24.9 °F 16.3 °F 1015.8 in SE 14.8 mph 14.8 mph 59 % 0.0 in
18:31 24.8 °F 16.5 °F 1015.8 in SSE 13.0 mph 13.0 mph 60 % 0.0 in
18:36 24.7 °F 16.4 °F 1015.8 in SSE 11.1 mph 11.1 mph 60 % 0.0 in
18:41 24.8 °F 16.5 °F 1016.8 in ESE 14.8 mph 14.8 mph 60 % 0.0 in
18:46 24.8 °F 16.2 °F 1016.8 in ESE 11.1 mph 11.1 mph 59 % 0.0 in
18:51 24.8 °F 16.2 °F 1016.8 in ENE 18.5 mph 18.5 mph 59 % 0.0 in
18:56 24.5 °F 15.9 °F 1015.8 in ESE 14.8 mph 14.8 mph 59 % 0.0 in
19:01 24.5 °F 16.2 °F 1015.8 in ENE 9.3 mph 9.3 mph 60 % 0.0 in
19:06 24.3 °F 16.1 °F 1015.8 in East 13.0 mph 13.0 mph 60 % 0.0 in
19:11 24.3 °F 16.1 °F 1015.8 in NE 11.1 mph 11.1 mph 60 % 0.0 in
19:16 24.1 °F 15.8 °F 1015.8 in ENE 13.0 mph 13.0 mph 60 % 0.0 in
19:21 24.0 °F 15.8 °F 1015.8 in East 13.0 mph 13.0 mph 60 % 0.0 in
19:26 24.0 °F 16.0 °F 1016.8 in East 13.0 mph 13.0 mph 61 % 0.0 in
19:31 24.0 °F 16.0 °F 1016.8 in East 11.1 mph 11.1 mph 61 % 0.0 in
19:36 23.9 °F 16.2 °F 1016.8 in ESE 9.5 mph 9.5 mph 62 % 0.0 in
19:41 23.8 °F 16.1 °F 1016.8 in SE 13.0 mph 13.0 mph 62 % 0.0 in
19:46 23.7 °F 16.0 °F 1016.8 in ESE 7.6 mph 7.6 mph 62 % 0.0 in
19:51 23.7 °F 16.0 °F 1016.8 in SE 9.5 mph 9.5 mph 62 % 0.0 in
19:56 23.6 °F 16.2 °F 1016.8 in ESE 9.3 mph 9.3 mph 63 % 0.0 in
20:01 23.5 °F 16.1 °F 1016.8 in ESE 9.3 mph 9.3 mph 63 % 0.0 in
20:02 23.5 °F 16.1 °F 1016.8 in East 7.6 mph 7.6 mph 63 % 0.0 in
20:07 23.4 °F 15.9 °F 1016.8 in ESE 9.3 mph 9.3 mph 63 % 0.0 in
20:12 23.3 °F 15.8 °F 1017.8 in ESE 9.3 mph 9.3 mph 63 % 0.0 in
20:17 23.3 °F 15.8 °F 1017.8 in East 6.4 mph 6.4 mph 63 % 0.0 in
20:22 23.1 °F 15.9 °F 1017.8 in ESE 7.4 mph 7.4 mph 64 % 0.0 in
20:27 23.0 °F 15.8 °F 1017.8 in ENE 5.6 mph 5.6 mph 64 % 0.0 in
20:32 23.0 °F 15.8 °F 1017.8 in East 5.6 mph 5.6 mph 64 % 0.0 in
20:37 22.9 °F 15.7 °F 1017.8 in ESE 5.6 mph 5.6 mph 64 % 0.0 in
20:42 22.8 °F 15.6 °F 1017.8 in ENE 7.6 mph 7.6 mph 64 % 0.0 in
20:47 22.7 °F 15.6 °F 1017.8 in NE 3.7 mph 3.7 mph 64 % 0.0 in
20:52 22.6 °F 15.4 °F 1017.8 in ENE 3.9 mph 3.9 mph 64 % 0.0 in
20:57 22.6 °F 15.7 °F 1017.8 in ENE 5.6 mph 5.6 mph 65 % 0.0 in
21:02 22.5 °F 15.6 °F 1017.8 in NNE 3.7 mph 3.7 mph 65 % 0.0 in
21:07 22.4 °F 15.5 °F 1016.8 in ENE 7.4 mph 7.4 mph 65 % 0.0 in
21:12 22.4 °F 15.5 °F 1016.8 in ENE 4.2 mph 4.2 mph 65 % 0.0 in
21:17 22.3 °F 15.4 °F 1016.8 in ENE 5.6 mph 5.6 mph 65 % 0.0 in
21:22 22.3 °F 15.4 °F 1017.8 in NE 7.4 mph 7.4 mph 65 % 0.0 in
21:27 22.2 °F 15.6 °F 1017.8 in NNE 3.9 mph 3.9 mph 66 % 0.0 in
21:32 22.1 °F 15.4 °F 1017.8 in East 5.6 mph 5.6 mph 66 % 0.0 in
21:37 22.0 °F 15.3 °F 1017.8 in ESE 5.6 mph 5.6 mph 66 % 0.0 in
21:42 22.0 °F 15.3 °F 1017.8 in NNE 5.6 mph 5.6 mph 66 % 0.0 in
21:47 22.0 °F 15.3 °F 1017.8 in ENE 4.2 mph 4.2 mph 66 % 0.0 in
21:52 22.0 °F 15.3 °F 1018.8 in NE 5.0 mph 5.0 mph 66 % 0.0 in
21:57 21.9 °F 15.5 °F 1018.8 in NE 3.9 mph 3.9 mph 67 % 0.0 in
22:02 21.9 °F 15.5 °F 1018.8 in NE 3.7 mph 3.7 mph 67 % 0.0 in
22:07 21.9 °F 15.7 °F 1018.8 in NNE 4.7 mph 4.7 mph 68 % 0.0 in
22:12 21.9 °F 15.7 °F 1018.8 in NE 3.7 mph 3.7 mph 68 % 0.0 in
22:17 21.8 °F 15.6 °F 1018.8 in ENE 3.7 mph 3.7 mph 68 % 0.0 in
22:22 21.7 °F 15.6 °F 1018.8 in NNE 1.9 mph   68 % 0.0 in
22:27 21.7 °F 15.6 °F 1018.8 in NNE 1.9 mph 1.9 mph 68 % 0.0 in
22:32 21.6 °F 15.7 °F 1018.8 in NNE 3.7 mph 3.7 mph 69 % 0.0 in
22:37 21.6 °F 15.7 °F 1018.8 in Calm     69 % 0.0 in
22:42 21.5 °F 15.6 °F 1018.8 in NNE 1.9 mph   69 % 0.0 in
22:47 21.4 °F 15.5 °F 1018.8 in NNE 3.7 mph   69 % 0.0 in
22:52 21.4 °F 15.5 °F 1018.8 in NNE 1.9 mph   69 % 0.0 in
22:57 21.3 °F 15.4 °F 1018.8 in Calm     69 % 0.0 in
23:02 21.2 °F 15.5 °F 1018.8 in North 1.9 mph   70 % 0.0 in
23:07 21.1 °F 15.4 °F 1019.9 in Calm     70 % 0.0 in
23:12 21.0 °F 15.3 °F 1019.9 in NNE 1.9 mph 1.9 mph 70 % 0.0 in
23:17 20.9 °F 15.2 °F 1019.9 in Calm     70 % 0.0 in
23:20 18.1 °F 14.8 °F 1018.8 in Calm     81 % 0.0 in
23:22 20.8 °F 15.3 °F 1019.9 in Calm     71 % 0.0 in
23:27 20.8 °F 15.3 °F 1019.9 in NNE 1.9 mph   71 % 0.0 in
23:30 18.1 °F 14.8 °F 1018.8 in Calm     81 % 0.0 in
23:32 20.7 °F 15.3 °F 1019.9 in Calm     71 % 0.0 in
23:37 20.6 °F 15.2 °F 1018.8 in Calm     71 % 0.0 in
23:40 18.0 °F 14.7 °F 1019.9 in Calm     81 % 0.0 in
23:42 20.5 °F 15.1 °F 1018.8 in North 1.9 mph 1.9 mph 71 % 0.0 in
23:47 20.5 °F 15.1 °F 1018.8 in Calm     71 % 0.0 in
23:50 18.1 °F 15.0 °F 1019.9 in Calm     82 % 0.0 in
23:52 20.5 °F 15.1 °F 1019.9 in Calm     71 % 0.0 in
23:57 20.4 °F 15.2 °F 1019.9 in Calm     72 % 0.0 in
Meteo Sesrovires
Elogis d' Weather Underground - 3.5 mb

Guio original per  Jim McMurry - jmcmurry@mwt.net Adaptat per a la plantilla per  Wim van der Kuil - Leuven-Template.eu

Trobareu la nostra informacio del temps tambe a:

Weather Underground

AWEKAS